createdAt,value
2022-09-25T00:00:50.369Z,76.30
2022-09-25T00:10:56.469Z,58.00
2022-09-25T00:21:02.684Z,58.00
2022-09-25T00:31:09.797Z,58.60
2022-09-25T00:41:17.716Z,54.50
2022-09-25T00:51:30.823Z,54.20
2022-09-25T01:01:37.051Z,56.80
2022-09-25T01:11:43.129Z,61.40
2022-09-25T01:21:53.903Z,56.20
2022-09-25T01:32:18.338Z,65.50
2022-09-25T01:42:28.933Z,56.90
2022-09-25T01:52:43.081Z,57.20
2022-09-25T02:02:58.705Z,68.40
2022-09-25T02:13:09.861Z,56.70
2022-09-25T02:23:20.643Z,51.10
2022-09-25T02:33:27.616Z,60.10
2022-09-25T02:43:45.860Z,58.50
2022-09-25T02:53:56.999Z,54.40
2022-09-25T03:04:04.610Z,47.90
2022-09-25T03:14:11.413Z,45.90
2022-09-25T03:24:16.873Z,46.10
2022-09-25T03:34:23.929Z,44.40
2022-09-25T03:44:30.440Z,45.00
2022-09-25T03:54:36.482Z,41.90
2022-09-25T04:04:42.494Z,40.20
2022-09-25T04:14:48.929Z,40.70
2022-09-25T04:24:56.124Z,38.70
2022-09-25T04:35:02.538Z,37.90
2022-09-25T04:45:08.653Z,39.60
2022-09-25T04:55:14.901Z,38.80
2022-09-25T05:05:21.178Z,41.70
2022-09-25T05:15:27.779Z,37.90
2022-09-25T05:25:33.926Z,38.00
2022-09-25T05:35:40.026Z,39.10
2022-09-25T05:45:46.194Z,46.70
2022-09-25T05:55:52.970Z,40.30
2022-09-25T06:06:02.048Z,38.90
2022-09-25T06:16:14.319Z,39.80
2022-09-25T06:26:20.817Z,36.50
2022-09-25T06:36:27.431Z,37.60
2022-09-25T06:46:33.658Z,37.90
2022-09-25T06:56:39.803Z,40.70
2022-09-25T07:06:46.305Z,40.70
2022-09-25T07:16:52.355Z,41.10
2022-09-25T07:26:58.429Z,41.70
2022-09-25T07:37:04.709Z,47.70
2022-09-25T07:47:11.708Z,47.00
2022-09-25T07:57:19.706Z,45.20
2022-09-25T08:07:25.734Z,49.30
2022-09-25T08:17:32.641Z,47.50
2022-09-25T08:27:42.025Z,43.60
2022-09-25T08:37:48.188Z,47.90
2022-09-25T08:48:14.694Z,44.20
2022-09-25T08:58:23.546Z,42.30
2022-09-25T09:08:30.588Z,50.20
2022-09-25T09:18:40.964Z,46.80
2022-09-25T09:28:47.063Z,43.50
2022-09-25T09:39:33.321Z,42.60
2022-09-25T09:49:52.386Z,35.20
2022-09-25T10:00:08.731Z,38.30
2022-09-25T10:10:18.253Z,34.00
2022-09-25T10:20:24.720Z,35.20
2022-09-25T10:30:30.833Z,26.10
2022-09-25T10:40:38.134Z,26.60
2022-09-25T10:50:44.659Z,22.40
2022-09-25T11:00:50.907Z,22.40
2022-09-25T11:11:00.853Z,21.90
2022-09-25T11:21:07.641Z,23.40
2022-09-25T11:31:22.108Z,23.00
2022-09-25T11:41:37.216Z,22.60
2022-09-25T11:52:04.859Z,23.10
2022-09-25T12:02:17.097Z,18.90
2022-09-25T12:12:26.232Z,22.10
2022-09-25T12:22:49.756Z,23.00
2022-09-25T12:33:18.933Z,22.20
2022-09-25T12:43:54.389Z,18.80
2022-09-25T12:54:02.762Z,20.90
2022-09-25T13:04:27.572Z,21.20
2022-09-25T13:14:40.933Z,22.80
2022-09-25T13:24:51.189Z,22.70
2022-09-25T13:35:01.504Z,21.50
2022-09-25T13:45:23.026Z,22.90
2022-09-25T13:55:29.171Z,23.80
2022-09-25T14:05:39.016Z,24.00
2022-09-25T14:15:46.514Z,21.90
2022-09-25T14:26:03.230Z,22.30
2022-09-25T14:36:23.437Z,22.10
2022-09-25T14:46:29.138Z,21.70
2022-09-25T14:56:36.702Z,23.00
2022-09-25T15:06:43.529Z,26.00
2022-09-25T15:17:09.374Z,26.80
2022-09-25T15:27:17.346Z,26.50
2022-09-25T15:37:28.748Z,27.90
2022-09-25T15:47:37.985Z,32.30
2022-09-25T15:57:44.566Z,34.10
2022-09-25T16:07:50.910Z,29.50
2022-09-25T16:18:04.431Z,25.10
2022-09-25T16:28:17.582Z,25.50
2022-09-25T16:38:27.372Z,30.80
2022-09-25T16:48:37.356Z,30.60
2022-09-25T16:58:43.701Z,35.20
2022-09-25T17:08:51.132Z,32.90
2022-09-25T17:19:01.347Z,31.30
2022-09-25T17:29:08.131Z,35.00
2022-09-25T17:39:14.848Z,38.50
2022-09-25T17:49:21.132Z,54.10
2022-09-25T17:59:27.315Z,42.30
2022-09-25T18:09:33.715Z,38.30
2022-09-25T18:19:58.725Z,39.30
2022-09-25T18:30:05.026Z,33.70
2022-09-25T18:40:12.283Z,35.80
2022-09-25T18:50:20.849Z,37.20
2022-09-25T19:00:27.260Z,34.80
2022-09-25T19:10:35.747Z,32.80
2022-09-25T19:20:49.195Z,35.80
2022-09-25T19:30:58.493Z,35.50
2022-09-25T19:41:05.693Z,36.70
2022-09-25T19:51:11.903Z,37.40
2022-09-25T20:01:19.365Z,40.10
2022-09-25T20:11:25.998Z,41.80
2022-09-25T20:21:33.908Z,46.30
2022-09-25T20:31:40.980Z,46.80
2022-09-25T20:41:46.984Z,41.50
2022-09-25T20:51:53.038Z,41.80
2022-09-25T21:01:59.288Z,44.90
2022-09-25T21:12:06.979Z,46.00
2022-09-25T21:22:13.221Z,43.60
2022-09-25T21:32:19.266Z,45.30
2022-09-25T21:42:25.310Z,47.90
2022-09-25T21:52:31.431Z,45.80
2022-09-25T22:02:37.546Z,47.60
2022-09-25T22:12:43.623Z,53.10
2022-09-25T22:22:49.806Z,55.80
2022-09-25T22:32:55.841Z,68.20
2022-09-25T22:43:02.716Z,55.40
2022-09-25T22:53:08.783Z,50.30
2022-09-25T23:03:14.870Z,48.50
2022-09-25T23:13:20.986Z,49.40
2022-09-25T23:23:27.013Z,52.90
2022-09-25T23:33:33.963Z,48.60
2022-09-25T23:43:40.044Z,47.00
2022-09-25T23:53:46.410Z,46.40
